Time;durP1;ratioP1;P1;durP2;ratioP2;P2;SDS_P1;SDS_P2;PMS_P1;PMS_P2;Temp;Humidity;BMP_temperature;BMP_pressure;BME280_temperature;BME280_humidity;BME280_pressure;Samples;Min_cycle;Max_cycle;Signal;HPM_P1;HPM_P2
2024/03/24 00:01:04;;;;;;;5.10;4.60;;;4.30;1.00;;;;;;5106506;27;21098;-76
2024/03/24 00:03:31;;;;;;;4.90;3.90;;;4.30;1.00;;;;;;5090707;28;20240;-76
2024/03/24 00:05:57;;;;;;;7.18;6.35;;;4.30;1.00;;;;;;5105506;28;20252;-76
2024/03/24 00:08:23;;;;;;;7.47;6.77;;;4.40;1.00;;;;;;5106351;27;20239;-75
2024/03/24 00:10:49;;;;;;;6.40;5.65;;;4.40;1.00;;;;;;5107904;27;20457;-76
2024/03/24 00:13:18;;;;;;;6.28;5.50;;;4.40;1.00;;;;;;5110575;27;20235;-75
2024/03/24 00:15:45;;;;;;;8.10;4.95;;;4.40;1.00;;;;;;5107896;27;20258;-75
2024/03/24 00:18:11;;;;;;;4.72;4.32;;;4.40;1.00;;;;;;5105969;27;20233;-75
2024/03/24 00:20:37;;;;;;;6.10;4.40;;;4.40;1.00;;;;;;5111314;27;20309;-74
2024/03/24 00:23:04;;;;;;;6.17;5.57;;;4.40;1.00;;;;;;5112304;27;20307;-75
2024/03/24 00:25:30;;;;;;;6.65;5.05;;;4.40;1.00;;;;;;5108909;27;20451;-75
2024/03/24 00:27:57;;;;;;;5.03;4.53;;;4.40;1.00;;;;;;5107408;27;20266;-76
2024/03/24 00:30:24;;;;;;;6.85;4.53;;;4.40;1.00;;;;;;5107681;27;20560;-77
2024/03/24 00:32:52;;;;;;;6.18;5.45;;;4.40;1.00;;;;;;5106376;27;20245;-74
2024/03/24 00:35:18;;;;;;;6.22;5.03;;;4.40;1.00;;;;;;5104685;27;20342;-73
2024/03/24 00:37:45;;;;;;;5.63;4.80;;;4.30;1.00;;;;;;5106960;27;20249;-74
2024/03/24 00:40:13;;;;;;;4.90;4.40;;;4.30;1.00;;;;;;5106054;27;21105;-72
2024/03/24 00:42:40;;;;;;;6.35;5.35;;;4.40;1.00;;;;;;5106661;27;20241;-74
2024/03/24 00:45:08;;;;;;;5.13;4.63;;;4.40;1.00;;;;;;5104749;27;20308;-74
2024/03/24 00:47:36;;;;;;;6.20;4.93;;;4.40;1.00;;;;;;5106453;27;20746;-74
2024/03/24 00:50:02;;;;;;;6.55;5.07;;;4.50;1.00;;;;;;5106842;27;20262;-74
2024/03/24 00:52:29;;;;;;;5.93;4.60;;;4.50;1.00;;;;;;5105962;27;20262;-74
2024/03/24 00:54:55;;;;;;;4.70;4.15;;;4.60;1.00;;;;;;5105680;27;20318;-74
2024/03/24 00:57:22;;;;;;;5.43;4.50;;;4.70;1.00;;;;;;5106294;27;20248;-74
2024/03/24 00:59:49;;;;;;;5.50;4.95;;;4.60;1.00;;;;;;5102393;27;20263;-74
2024/03/24 01:02:16;;;;;;;8.23;4.50;;;4.60;1.00;;;;;;5104115;27;20726;-74
2024/03/24 01:04:43;;;;;;;4.80;3.92;;;4.70;1.00;;;;;;5103608;27;20458;-74
2024/03/24 01:07:10;;;;;;;6.03;4.90;;;4.70;1.00;;;;;;5106167;27;20239;-74
2024/03/24 01:09:36;;;;;;;5.65;5.15;;;4.60;1.00;;;;;;5102902;28;20318;-74
2024/03/24 01:12:03;;;;;;;6.27;4.60;;;4.60;1.00;;;;;;5105313;27;20265;-74
2024/03/24 01:14:29;;;;;;;4.55;4.13;;;4.60;1.00;;;;;;5104525;27;20554;-73
2024/03/24 01:16:56;;;;;;;4.38;3.97;;;4.50;1.00;;;;;;5101918;27;20739;-73
2024/03/24 01:19:22;;;;;;;5.18;4.55;;;4.40;1.00;;;;;;5104746;27;20239;-74
2024/03/24 01:21:52;;;;;;;5.77;4.80;;;4.30;1.00;;;;;;5105796;27;20239;-73
2024/03/24 01:24:18;;;;;;;5.18;4.45;;;4.30;1.00;;;;;;5107347;27;20741;-74
2024/03/24 01:26:45;;;;;;;6.13;4.65;;;4.20;1.00;;;;;;5104188;27;20725;-73
2024/03/24 01:29:13;;;;;;;5.90;4.43;;;4.20;1.00;;;;;;5100822;27;20285;-73
2024/03/24 01:31:40;;;;;;;5.60;5.00;;;4.10;1.00;;;;;;5106256;27;20235;-73
2024/03/24 01:34:06;;;;;;;7.78;5.65;;;4.10;1.00;;;;;;5109044;27;20238;-73
2024/03/24 01:36:33;;;;;;;6.47;5.83;;;4.10;1.00;;;;;;5104859;27;20274;-74
2024/03/24 01:39:00;;;;;;;4.70;4.25;;;4.00;1.00;;;;;;5107847;27;21074;-75
2024/03/24 01:41:28;;;;;;;8.15;5.93;;;4.00;1.00;;;;;;5110127;27;20784;-75
2024/03/24 01:43:55;;;;;;;5.95;4.60;;;3.90;1.00;;;;;;5109152;27;20236;-75
2024/03/24 01:46:22;;;;;;;5.72;5.00;;;3.90;1.00;;;;;;5092492;28;20294;-74
2024/03/24 01:48:48;;;;;;;7.07;5.38;;;3.90;1.00;;;;;;5086506;28;20362;-77
2024/03/24 01:51:16;;;;;;;5.80;5.10;;;3.80;1.00;;;;;;5087927;28;20237;-75
2024/03/24 01:53:43;;;;;;;8.35;7.38;;;3.80;1.00;;;;;;5087756;27;20286;-75
2024/03/24 01:56:11;;;;;;;7.35;4.90;;;3.80;1.00;;;;;;5087194;28;21020;-75
2024/03/24 01:58:37;;;;;;;5.88;5.30;;;3.80;1.00;;;;;;5087957;28;20240;-75
2024/03/24 02:01:06;;;;;;;7.63;5.38;;;3.80;1.00;;;;;;5101146;27;20236;-76
2024/03/24 02:03:35;;;;;;;7.72;5.60;;;3.80;1.00;;;;;;5088149;27;20244;-74
2024/03/24 02:06:02;;;;;;;6.80;6.10;;;3.80;1.00;;;;;;5085468;27;20246;-75
2024/03/24 02:08:29;;;;;;;7.35;5.47;;;3.80;1.00;;;;;;5084158;28;21047;-76
2024/03/24 02:10:56;;;;;;;6.22;5.60;;;3.70;1.00;;;;;;5086165;27;20358;-75
2024/03/24 02:13:23;;;;;;;5.97;5.15;;;3.70;1.00;;;;;;5092425;27;20242;-74
2024/03/24 02:15:50;;;;;;;6.35;5.75;;;3.60;1.00;;;;;;5107567;27;20239;-75
2024/03/24 02:18:16;;;;;;;6.35;4.78;;;3.60;1.00;;;;;;5108387;27;20246;-74
2024/03/24 02:20:43;;;;;;;8.30;5.90;;;3.60;1.00;;;;;;5107529;27;20228;-76
2024/03/24 02:23:10;;;;;;;7.15;6.10;;;3.60;1.00;;;;;;5108049;27;21430;-75
2024/03/24 02:25:37;;;;;;;5.70;5.20;;;3.60;1.00;;;;;;5099253;27;20238;-76
2024/03/24 02:28:04;;;;;;;6.22;5.57;;;3.50;1.00;;;;;;5108416;27;20781;-74
2024/03/24 02:30:31;;;;;;;6.97;6.20;;;3.50;1.00;;;;;;5109237;27;20265;-75
2024/03/24 02:32:57;;;;;;;6.55;5.00;;;3.50;1.00;;;;;;5106791;27;23323;-73
2024/03/24 02:35:26;;;;;;;7.77;5.70;;;3.50;1.00;;;;;;5109131;27;20257;-74
2024/03/24 02:37:52;;;;;;;7.07;5.70;;;3.50;1.00;;;;;;5108717;27;20495;-76
2024/03/24 02:40:20;;;;;;;7.07;6.00;;;3.50;1.00;;;;;;5109728;27;20250;-76
2024/03/24 02:42:46;;;;;;;6.45;5.85;;;3.50;1.00;;;;;;5109051;27;20255;-74
2024/03/24 02:45:13;;;;;;;7.22;6.40;;;3.40;1.00;;;;;;5090369;27;20243;-75
2024/03/24 02:47:39;;;;;;;6.32;5.72;;;3.50;1.00;;;;;;5084787;28;20295;-75
2024/03/24 02:50:06;;;;;;;6.37;5.77;;;3.50;1.00;;;;;;5084033;27;20245;-73
2024/03/24 02:52:33;;;;;;;7.13;5.88;;;3.50;1.00;;;;;;5087415;27;20560;-72
2024/03/24 02:55:00;;;;;;;6.60;6.00;;;3.50;1.00;;;;;;5082687;28;20237;-71
2024/03/24 02:57:27;;;;;;;8.95;6.35;;;3.50;1.00;;;;;;5083693;28;20237;-75
2024/03/24 02:59:54;;;;;;;7.28;5.32;;;3.50;1.00;;;;;;5086101;27;20318;-72
2024/03/24 03:02:20;;;;;;;8.18;6.78;;;3.50;1.00;;;;;;5090393;27;20339;-71
2024/03/24 03:04:47;;;;;;;7.37;5.60;;;3.60;1.00;;;;;;5095553;27;20322;-73
2024/03/24 03:07:13;;;;;;;6.65;5.57;;;3.60;1.00;;;;;;5118218;27;20462;-71
2024/03/24 03:09:40;;;;;;;7.20;6.07;;;3.70;1.00;;;;;;5108181;27;20245;-71
2024/03/24 03:12:06;;;;;;;9.02;6.22;;;3.70;1.00;;;;;;5107224;27;20446;-71
2024/03/24 03:14:34;;;;;;;6.15;5.35;;;3.70;1.00;;;;;;5106056;27;20722;-71
2024/03/24 03:17:00;;;;;;;8.18;6.57;;;3.70;1.00;;;;;;5107768;27;21030;-71
2024/03/24 03:19:27;;;;;;;8.10;6.57;;;3.70;1.00;;;;;;5106887;27;20239;-72
2024/03/24 03:21:53;;;;;;;5.80;5.22;;;3.60;1.00;;;;;;5108252;27;20468;-71
2024/03/24 03:24:20;;;;;;;7.37;5.73;;;3.60;1.00;;;;;;5107098;27;20239;-72
2024/03/24 03:26:46;;;;;;;8.52;6.32;;;3.60;1.00;;;;;;5108509;27;20541;-72
2024/03/24 03:29:13;;;;;;;7.43;5.47;;;3.60;1.00;;;;;;5104755;27;20599;-71
2024/03/24 03:31:40;;;;;;;7.45;6.75;;;3.60;1.00;;;;;;5107104;27;20507;-73
2024/03/24 03:34:07;;;;;;;5.82;5.10;;;3.60;1.00;;;;;;5105015;27;20259;-73
2024/03/24 03:36:33;;;;;;;6.15;5.55;;;3.60;1.00;;;;;;5108407;27;20246;-71
2024/03/24 03:39:00;;;;;;;10.70;5.50;;;3.60;1.00;;;;;;5107296;27;20227;-71
2024/03/24 03:41:26;;;;;;;6.65;6.05;;;3.60;1.00;;;;;;5094594;27;20458;-72
2024/03/24 03:43:53;;;;;;;5.80;5.05;;;3.60;1.00;;;;;;5081589;27;20264;-72
2024/03/24 03:46:19;;;;;;;6.20;5.13;;;3.50;1.00;;;;;;5080950;28;21043;-74
2024/03/24 03:48:48;;;;;;;7.30;5.50;;;3.50;1.00;;;;;;5080600;28;20336;-71
2024/03/24 03:51:17;;;;;;;6.45;5.85;;;3.50;1.00;;;;;;5082831;28;20582;-72
2024/03/24 03:53:44;;;;;;;9.02;5.28;;;3.40;1.00;;;;;;5082278;27;20243;-72
2024/03/24 03:56:10;;;;;;;6.97;5.90;;;3.50;1.00;;;;;;5084851;27;20235;-72
2024/03/24 03:58:37;;;;;;;6.53;5.60;;;3.40;1.00;;;;;;5095426;27;20240;-73
2024/03/24 04:01:03;;;;;;;7.03;6.32;;;3.50;1.00;;;;;;5103870;27;20565;-75
2024/03/24 04:03:32;;;;;;;7.38;5.30;;;3.50;1.00;;;;;;5092603;27;20235;-75
2024/03/24 04:06:02;;;;;;;7.05;5.75;;;3.40;1.00;;;;;;5105032;27;20407;-75
2024/03/24 04:08:29;;;;;;;6.90;5.97;;;3.40;1.00;;;;;;5103399;27;20240;-74
2024/03/24 04:10:55;;;;;;;8.35;6.28;;;3.40;1.00;;;;;;5102702;27;20265;-74
2024/03/24 04:13:22;;;;;;;8.18;6.00;;;3.40;1.00;;;;;;5084199;28;20240;-75
2024/03/24 04:15:48;;;;;;;9.10;6.50;;;3.40;1.00;;;;;;5081516;27;20251;-75
2024/03/24 04:18:15;;;;;;;7.30;6.20;;;3.40;1.00;;;;;;5085503;28;20313;-76
2024/03/24 04:20:43;;;;;;;7.82;5.95;;;3.40;1.00;;;;;;5081415;27;20459;-76
2024/03/24 04:23:11;;;;;;;8.20;5.45;;;3.40;1.00;;;;;;5086543;28;20236;-75
2024/03/24 04:25:38;;;;;;;6.82;6.13;;;3.40;1.00;;;;;;5104620;27;20245;-75
2024/03/24 04:28:05;;;;;;;9.20;6.40;;;3.30;1.00;;;;;;5096108;27;20243;-75
2024/03/24 04:30:32;;;;;;;7.47;6.03;;;3.30;1.00;;;;;;5082134;28;20240;-76
2024/03/24 04:32:59;;;;;;;5.88;5.38;;;3.30;1.00;;;;;;5084523;28;20237;-76
2024/03/24 04:35:25;;;;;;;8.10;5.90;;;3.20;1.00;;;;;;5099998;27;20322;-76
2024/03/24 04:37:53;;;;;;;6.47;5.60;;;3.20;1.00;;;;;;5105528;27;21062;-75
2024/03/24 04:40:21;;;;;;;5.75;5.15;;;3.10;1.00;;;;;;5099089;27;20242;-74
2024/03/24 04:42:48;;;;;;;6.80;5.28;;;3.10;1.00;;;;;;5101400;27;20314;-74
2024/03/24 04:45:15;;;;;;;6.63;5.90;;;3.10;1.00;;;;;;5083436;28;20239;-75
2024/03/24 04:47:42;;;;;;;6.28;5.30;;;3.10;1.00;;;;;;5081245;27;20319;-75
2024/03/24 04:50:09;;;;;;;7.13;5.10;;;3.20;1.00;;;;;;5093057;27;20240;-74
2024/03/24 04:52:35;;;;;;;7.97;6.78;;;3.20;1.00;;;;;;5101251;27;20216;-75
2024/03/24 04:55:02;;;;;;;9.48;6.40;;;3.20;1.00;;;;;;5102384;27;20719;-74
2024/03/24 04:57:30;;;;;;;6.85;5.80;;;3.20;1.00;;;;;;5101713;27;20768;-74
2024/03/24 04:59:56;;;;;;;6.43;5.53;;;3.20;1.00;;;;;;5108196;27;20289;-76
2024/03/24 05:02:23;;;;;;;6.33;5.67;;;3.20;1.00;;;;;;5106198;27;20327;-76
2024/03/24 05:04:49;;;;;;;8.85;6.10;;;3.30;1.00;;;;;;5103351;27;20478;-74
2024/03/24 05:07:17;;;;;;;7.88;6.80;;;3.30;1.00;;;;;;5103031;27;20782;-76
2024/03/24 05:09:46;;;;;;;6.72;5.43;;;3.40;1.00;;;;;;5092671;27;21088;-76
2024/03/24 05:12:12;;;;;;;6.18;5.57;;;3.40;1.00;;;;;;5108941;27;20668;-74
2024/03/24 05:14:40;;;;;;;7.20;5.95;;;3.30;1.00;;;;;;5105177;27;20242;-74
2024/03/24 05:17:07;;;;;;;6.75;6.05;;;3.30;1.00;;;;;;5112330;27;20239;-76
2024/03/24 05:19:33;;;;;;;7.25;5.70;;;3.30;1.00;;;;;;5106818;27;20267;-75
2024/03/24 05:22:00;;;;;;;7.73;6.93;;;3.40;1.00;;;;;;5099824;27;20315;-74
2024/03/24 05:24:27;;;;;;;7.05;6.20;;;3.30;1.00;;;;;;5086650;28;20466;-76
2024/03/24 05:26:53;;;;;;;9.35;6.43;;;3.30;1.00;;;;;;5085754;27;20267;-75
2024/03/24 05:29:21;;;;;;;8.27;6.47;;;3.30;1.00;;;;;;5082801;27;20335;-76
2024/03/24 05:31:55;;;;;;;8.85;7.22;;;3.20;1.00;;;;;;5083884;28;20363;-75
2024/03/24 05:34:21;;;;;;;9.15;7.32;;;3.30;1.00;;;;;;5082679;28;20263;-76
2024/03/24 05:36:48;;;;;;;9.50;6.07;;;3.40;1.00;;;;;;5081076;28;20332;-76
2024/03/24 05:39:14;;;;;;;7.47;6.78;;;3.40;1.00;;;;;;5084888;28;21290;-74
2024/03/24 05:41:41;;;;;;;8.10;7.30;;;3.40;1.00;;;;;;5080667;27;20256;-75
2024/03/24 05:44:07;;;;;;;8.55;7.65;;;3.50;1.00;;;;;;5082355;27;20304;-76
2024/03/24 05:46:34;;;;;;;8.80;6.90;;;3.70;1.00;;;;;;5080748;27;20250;-75
2024/03/24 05:49:01;;;;;;;7.90;7.15;;;3.80;1.00;;;;;;5080834;28;20486;-74
2024/03/24 05:51:28;;;;;;;10.10;6.65;;;3.80;1.00;;;;;;5085903;28;20245;-75
2024/03/24 05:53:54;;;;;;;7.50;6.70;;;3.90;1.00;;;;;;5083020;27;20366;-75
2024/03/24 05:56:21;;;;;;;10.87;6.80;;;3.90;1.00;;;;;;5088798;27;20307;-75
2024/03/24 05:58:47;;;;;;;7.13;6.38;;;4.00;1.00;;;;;;5108536;27;20462;-75
2024/03/24 06:01:13;;;;;;;6.47;5.80;;;4.00;1.00;;;;;;5109244;27;20648;-75
2024/03/24 06:03:39;;;;;;;6.80;6.05;;;4.00;1.00;;;;;;5107228;27;20474;-74
2024/03/24 06:06:08;;;;;;;8.63;6.88;;;4.10;1.00;;;;;;5095040;27;20769;-75
2024/03/24 06:08:34;;;;;;;7.50;6.70;;;4.10;1.00;;;;;;5086316;28;21108;-77
2024/03/24 06:11:02;;;;;;;6.32;5.72;;;4.10;1.00;;;;;;5090576;27;20846;-74
2024/03/24 06:13:28;;;;;;;6.82;6.22;;;4.10;1.00;;;;;;5090561;27;20243;-74
2024/03/24 06:15:54;;;;;;;7.97;6.37;;;4.20;1.00;;;;;;5086910;27;20698;-75
2024/03/24 06:18:20;;;;;;;6.50;5.63;;;4.20;1.00;;;;;;5085562;27;20551;-74
2024/03/24 06:20:47;;;;;;;8.03;5.97;;;4.20;1.00;;;;;;5085603;27;20249;-75
2024/03/24 06:23:15;;;;;;;5.82;5.25;;;4.20;1.00;;;;;;5088903;27;20561;-75
2024/03/24 06:25:42;;;;;;;6.57;5.72;;;4.20;1.00;;;;;;5082741;28;20236;-75
2024/03/24 06:28:08;;;;;;;8.73;6.00;;;4.10;1.00;;;;;;5086408;28;21187;-76
2024/03/24 06:30:35;;;;;;;6.57;4.90;;;4.10;1.00;;;;;;5086708;28;20240;-76
2024/03/24 06:33:01;;;;;;;6.13;5.53;;;4.20;1.00;;;;;;5083352;28;20432;-74
2024/03/24 06:35:28;;;;;;;6.53;5.40;;;4.20;1.00;;;;;;5088075;27;20291;-76
2024/03/24 06:37:54;;;;;;;6.95;5.70;;;4.30;1.00;;;;;;5087532;27;21054;-77
2024/03/24 06:40:22;;;;;;;6.17;5.53;;;4.30;1.00;;;;;;5083633;27;20239;-76
2024/03/24 06:42:59;;;;;;;8.82;5.80;;;4.50;1.00;;;;;;5079744;27;20576;-77
2024/03/24 06:45:29;;;;;;;7.43;6.68;;;4.50;1.00;;;;;;5097369;27;20735;-76
2024/03/24 06:47:56;;;;;;;9.07;5.55;;;4.60;1.00;;;;;;5097520;27;20240;-76
2024/03/24 06:50:23;;;;;;;6.72;6.05;;;4.70;1.00;;;;;;5090317;27;20327;-74
2024/03/24 06:52:52;;;;;;;5.75;5.20;;;4.90;1.00;;;;;;5085280;28;20361;-75
2024/03/24 06:55:19;;;;;;;5.38;4.90;;;5.10;1.00;;;;;;5086341;28;20299;-75
2024/03/24 06:57:46;;;;;;;8.18;5.93;;;5.20;1.00;;;;;;5086021;27;20328;-75
2024/03/24 07:00:14;;;;;;;5.70;5.20;;;5.30;1.00;;;;;;5088364;27;20264;-76
2024/03/24 07:02:40;;;;;;;10.50;5.22;;;5.40;1.00;;;;;;5086200;27;20236;-74
2024/03/24 07:05:08;;;;;;;5.20;4.70;;;5.50;1.00;;;;;;5109044;27;20278;-76
2024/03/24 07:07:35;;;;;;;5.50;5.00;;;5.40;1.00;;;;;;5108387;27;20562;-76
2024/03/24 07:10:02;;;;;;;6.13;4.45;;;5.30;1.00;;;;;;5107210;27;20243;-76
2024/03/24 07:12:28;;;;;;;4.47;4.07;;;5.30;1.00;;;;;;5105641;27;20239;-76
2024/03/24 07:14:57;;;;;;;5.30;4.80;;;5.40;1.00;;;;;;5105684;27;20231;-75
2024/03/24 07:17:23;;;;;;;6.38;4.95;;;5.50;1.00;;;;;;5104484;27;20460;-77
2024/03/24 07:19:49;;;;;;;5.97;5.17;;;5.60;1.00;;;;;;5109560;27;20606;-75
2024/03/24 07:22:15;;;;;;;6.22;4.95;;;5.80;1.00;;;;;;5107071;27;20547;-74
2024/03/24 07:24:42;;;;;;;5.10;4.60;;;5.90;1.00;;;;;;5104352;27;20675;-76
2024/03/24 07:27:08;;;;;;;5.10;4.60;;;6.00;1.00;;;;;;5107378;27;20459;-76
2024/03/24 07:29:35;;;;;;;7.07;4.70;;;6.20;1.00;;;;;;5105237;27;20238;-76
2024/03/24 07:32:03;;;;;;;5.43;4.88;;;6.30;1.00;;;;;;5108381;27;20479;-76
2024/03/24 07:34:30;;;;;;;5.18;4.50;;;6.30;1.00;;;;;;5108718;27;20236;-75
2024/03/24 07:36:56;;;;;;;5.10;4.30;;;6.40;1.00;;;;;;5108755;27;20237;-75
2024/03/24 07:39:25;;;;;;;5.10;4.57;;;6.40;1.00;;;;;;5107388;27;20735;-76
2024/03/24 07:41:51;;;;;;;4.95;4.45;;;6.40;1.00;;;;;;5111005;27;20471;-75
2024/03/24 07:44:19;;;;;;;6.40;3.90;;;6.40;1.00;;;;;;5104915;27;20241;-75
2024/03/24 07:46:45;;;;;;;4.60;4.10;;;6.50;1.00;;;;;;5107224;27;21300;-77
2024/03/24 07:49:13;;;;;;;7.13;3.90;;;6.60;1.00;;;;;;5110419;27;20994;-73
2024/03/24 07:51:39;;;;;;;5.13;3.60;;;6.70;1.00;;;;;;5106733;27;20244;-74
2024/03/24 07:54:06;;;;;;;4.60;3.70;;;6.90;1.00;;;;;;5103884;27;20245;-76
2024/03/24 07:56:32;;;;;;;5.07;4.13;;;7.00;1.00;;;;;;5106796;27;21032;-74
2024/03/24 07:58:59;;;;;;;5.72;5.22;;;7.20;1.00;;;;;;5101233;27;20661;-77
2024/03/24 08:01:25;;;;;;;4.05;3.65;;;7.20;1.00;;;;;;5109503;27;20325;-75
2024/03/24 08:03:52;;;;;;;3.50;3.20;;;7.30;1.00;;;;;;5108879;27;20252;-75
2024/03/24 08:06:20;;;;;;;5.72;3.70;;;7.30;1.00;;;;;;5106638;27;20966;-76
2024/03/24 08:08:47;;;;;;;4.05;3.75;;;7.30;1.00;;;;;;5109342;27;21097;-76
2024/03/24 08:11:13;;;;;;;5.93;4.25;;;7.50;1.00;;;;;;5108506;27;20235;-76
2024/03/24 08:13:41;;;;;;;3.90;3.60;;;7.50;1.00;;;;;;5109422;27;20696;-76
2024/03/24 08:16:07;;;;;;;4.30;3.67;;;7.60;1.00;;;;;;5107691;27;20238;-75
2024/03/24 08:18:36;;;;;;;4.32;2.95;;;7.70;1.00;;;;;;5106355;27;20241;-74
2024/03/24 08:21:03;;;;;;;3.55;3.25;;;7.70;1.00;;;;;;5103110;27;20230;-73
2024/03/24 08:23:31;;;;;;;3.67;3.38;;;7.80;1.00;;;;;;5104617;27;20244;-74
2024/03/24 08:25:58;;;;;;;3.42;3.13;;;7.80;1.00;;;;;;5083909;27;20282;-74
2024/03/24 08:28:26;;;;;;;4.23;3.00;;;8.00;1.00;;;;;;5084351;28;20244;-75
2024/03/24 08:30:52;;;;;;;4.23;3.33;;;8.00;1.00;;;;;;5083432;27;21023;-73
2024/03/24 08:33:19;;;;;;;4.57;3.28;;;8.30;1.00;;;;;;5084964;28;21191;-74
2024/03/24 08:35:46;;;;;;;4.43;3.57;;;8.50;1.00;;;;;;5103685;27;20338;-75
2024/03/24 08:38:13;;;;;;;4.70;2.90;;;8.60;1.00;;;;;;5091906;27;20466;-74
2024/03/24 08:40:40;;;;;;;4.50;3.17;;;8.70;1.00;;;;;;5082355;28;20506;-74
2024/03/24 08:43:07;;;;;;;3.60;3.30;;;8.60;1.00;;;;;;5084005;27;20554;-72
2024/03/24 08:45:35;;;;;;;4.17;3.60;;;8.60;1.00;;;;;;5085900;27;20232;-74
2024/03/24 08:48:02;;;;;;;3.67;3.30;;;8.60;1.00;;;;;;5084269;27;21017;-72
2024/03/24 08:50:28;;;;;;;4.50;3.77;;;8.80;1.00;;;;;;5081408;28;20503;-72
2024/03/24 08:52:54;;;;;;;4.00;3.27;;;9.10;1.00;;;;;;5078045;27;20542;-72
2024/03/24 08:55:20;;;;;;;4.80;3.70;;;9.50;1.00;;;;;;5081018;28;20490;-75
2024/03/24 08:57:49;;;;;;;3.63;3.17;;;9.60;1.00;;;;;;5095269;27;21110;-73
2024/03/24 09:00:15;;;;;;;3.23;2.93;;;9.70;1.00;;;;;;5105816;27;20524;-72
2024/03/24 09:02:42;;;;;;;3.47;2.87;;;9.70;1.00;;;;;;5105690;27;20449;-72
2024/03/24 09:05:08;;;;;;;6.07;3.80;;;9.90;1.00;;;;;;5104812;27;20470;-73
2024/03/24 09:07:36;;;;;;;3.83;3.10;;;10.00;1.00;;;;;;5092433;27;20446;-73
2024/03/24 09:10:02;;;;;;;4.50;3.60;;;10.00;1.00;;;;;;5103448;27;21236;-73
2024/03/24 09:12:29;;;;;;;3.50;3.20;;;9.90;1.00;;;;;;5104852;27;21301;-76
2024/03/24 09:14:56;;;;;;;7.63;3.30;;;10.50;1.00;;;;;;5107929;27;20541;-72
2024/03/24 09:17:23;;;;;;;3.90;3.07;;;10.90;1.00;;;;;;5105847;27;20462;-73
2024/03/24 09:19:49;;;;;;;3.33;3.03;;;11.30;1.00;;;;;;5102321;27;20493;-72
2024/03/24 09:22:16;;;;;;;4.13;2.97;;;11.50;1.00;;;;;;5089154;27;22417;-72
2024/03/24 09:24:42;;;;;;;3.53;3.23;;;11.60;1.00;;;;;;5086269;27;20539;-73
2024/03/24 09:27:09;;;;;;;3.50;3.20;;;11.30;1.00;;;;;;5092172;27;20463;-73
2024/03/24 09:29:35;;;;;;;5.03;3.33;;;10.80;1.00;;;;;;5093592;27;20953;-75
2024/03/24 09:32:05;;;;;;;3.60;3.30;;;10.30;1.00;;;;;;5088072;27;20547;-72
2024/03/24 09:34:31;;;;;;;2.77;2.40;;;9.70;1.00;;;;;;5086517;27;20451;-74
2024/03/24 09:36:58;;;;;;;3.97;3.57;;;9.30;1.00;;;;;;5080459;27;20454;-73
2024/03/24 09:39:24;;;;;;;3.87;3.43;;;9.00;1.00;;;;;;5087330;27;20469;-74
2024/03/24 09:41:51;;;;;;;3.60;3.30;;;8.80;1.00;;;;;;5096410;27;20884;-72
2024/03/24 09:44:22;;;;;;;4.23;3.83;;;8.60;1.00;;;;;;5108031;27;20531;-74
2024/03/24 09:46:49;;;;;;;4.80;3.80;;;8.40;1.00;;;;;;5107683;27;20463;-73
2024/03/24 09:49:23;;;;;;;3.60;3.30;;;8.00;1.00;;;;;;5108564;27;21009;-73
2024/03/24 09:51:50;;;;;;;5.20;3.63;;;7.60;1.00;;;;;;5108174;27;20461;-76
2024/03/24 09:54:16;;;;;;;5.43;4.85;;;7.40;1.00;;;;;;5108112;27;20236;-75
2024/03/24 09:56:46;;;;;;;4.73;4.20;;;7.30;1.00;;;;;;5110483;27;20691;-76
2024/03/24 09:59:12;;;;;;;5.47;3.63;;;7.40;1.00;;;;;;5112209;27;20468;-77
2024/03/24 10:01:39;;;;;;;4.88;4.05;;;7.30;1.00;;;;;;5109597;27;20235;-75
2024/03/24 10:04:05;;;;;;;5.03;4.50;;;7.30;1.00;;;;;;5087219;27;20239;-78
2024/03/24 10:06:35;;;;;;;6.00;5.17;;;7.20;1.00;;;;;;5099957;27;20229;-76
2024/03/24 10:09:02;;;;;;;4.93;4.35;;;7.10;1.00;;;;;;5096216;27;20624;-76
2024/03/24 10:11:30;;;;;;;5.75;4.40;;;7.00;1.00;;;;;;5090040;27;20238;-77
2024/03/24 10:13:57;;;;;;;13.35;11.32;;;6.80;1.00;;;;;;5086785;28;20234;-77
2024/03/24 10:16:24;;;;;;;6.65;4.45;;;6.60;1.00;;;;;;5088857;28;21048;-76
2024/03/24 10:18:50;;;;;;;4.35;3.70;;;6.60;1.00;;;;;;5087028;27;20766;-76
2024/03/24 10:21:18;;;;;;;3.78;3.35;;;6.40;1.00;;;;;;5089147;28;20314;-75
2024/03/24 10:23:47;;;;;;;3.83;3.50;;;6.20;1.00;;;;;;5092709;27;20288;-75
2024/03/24 10:26:19;;;;;;;3.55;3.25;;;6.00;1.00;;;;;;5099765;27;20259;-76
2024/03/24 10:28:47;;;;;;;5.20;2.97;;;5.90;1.00;;;;;;5089311;27;21008;-76
2024/03/24 10:31:15;;;;;;;6.32;3.17;;;5.90;1.00;;;;;;5097303;27;20328;-76
2024/03/24 10:33:41;;;;;;;3.50;3.20;;;5.80;1.00;;;;;;5090929;27;20620;-76
2024/03/24 10:36:09;;;;;;;3.42;3.10;;;5.80;1.00;;;;;;5110666;27;20235;-76
2024/03/24 10:38:36;;;;;;;3.85;3.30;;;5.80;1.00;;;;;;5110218;27;20270;-75
2024/03/24 10:41:06;;;;;;;4.13;3.72;;;5.70;1.00;;;;;;5108852;27;21126;-75
2024/03/24 10:43:34;;;;;;;4.38;3.75;;;5.60;1.00;;;;;;5109442;27;20250;-75
2024/03/24 10:46:01;;;;;;;4.57;3.70;;;5.60;1.00;;;;;;5112682;27;20235;-75
2024/03/24 10:48:29;;;;;;;5.82;4.10;;;5.60;1.00;;;;;;5107783;27;20268;-76
2024/03/24 10:50:58;;;;;;;4.55;3.58;;;5.50;1.00;;;;;;5110102;27;20792;-76
2024/03/24 10:53:25;;;;;;;4.93;4.50;;;5.40;1.00;;;;;;5112161;27;20242;-77
2024/03/24 10:55:54;;;;;;;4.03;3.72;;;5.50;1.00;;;;;;5109886;27;20405;-77
2024/03/24 10:58:22;;;;;;;5.15;3.97;;;5.50;1.00;;;;;;5107715;27;20336;-76
2024/03/24 11:00:50;;;;;;;4.45;3.80;;;5.70;1.00;;;;;;5108223;27;20243;-76
2024/03/24 11:03:18;;;;;;;7.50;4.88;;;5.80;1.00;;;;;;5106954;27;20326;-72
2024/03/24 11:05:47;;;;;;;7.20;4.43;;;5.80;1.00;;;;;;5112174;27;20235;-71
2024/03/24 11:08:15;;;;;;;5.63;5.13;;;5.80;1.00;;;;;;5093788;27;20232;-71
2024/03/24 11:10:43;;;;;;;5.38;4.88;;;5.70;1.00;;;;;;5090146;27;20328;-71
2024/03/24 11:13:12;;;;;;;7.00;5.50;;;5.70;1.00;;;;;;5089048;28;20726;-71
2024/03/24 11:15:42;;;;;;;5.05;4.43;;;5.70;1.00;;;;;;5084984;28;20236;-72
2024/03/24 11:18:20;;;;;;;6.25;4.60;;;5.80;1.00;;;;;;5089658;28;20238;-72
2024/03/24 11:20:51;;;;;;;5.90;4.50;;;6.00;1.00;;;;;;5102512;27;20323;-71
2024/03/24 11:23:19;;;;;;;5.38;4.50;;;6.30;1.00;;;;;;5086217;27;20232;-73
2024/03/24 11:25:50;;;;;;;5.15;4.75;;;6.30;1.00;;;;;;5094323;27;20238;-74
2024/03/24 11:28:45;;;;;;;8.73;4.70;;;6.10;1.00;;;;;;5099547;27;21066;-72
2024/03/24 11:31:33;;;;;;;6.15;5.55;;;6.00;1.00;;;;;;5102431;27;20239;-71
2024/03/24 11:34:00;;;;;;;5.35;4.82;;;6.10;1.00;;;;;;5089015;27;20458;-72
2024/03/24 11:36:28;;;;;;;6.75;5.68;;;6.30;1.00;;;;;;5086737;28;20296;-70
2024/03/24 11:38:55;;;;;;;6.40;5.80;;;6.40;1.00;;;;;;5085308;27;20753;-72
2024/03/24 11:41:23;;;;;;;5.85;5.30;;;6.20;1.00;;;;;;5088896;28;20244;-71
2024/03/24 11:43:55;;;;;;;5.85;5.30;;;6.20;1.00;;;;;;5085818;28;20697;-77
2024/03/24 11:46:24;;;;;;;5.63;5.13;;;6.30;1.00;;;;;;5088174;28;20739;-73
2024/03/24 11:48:53;;;;;;;6.00;5.40;;;6.10;1.00;;;;;;5084551;28;20240;-71
2024/03/24 11:51:23;;;;;;;7.90;7.07;;;6.00;1.00;;;;;;5096035;27;20301;-72
2024/03/24 11:53:51;;;;;;;6.63;5.40;;;6.00;1.00;;;;;;5087160;28;20970;-72
2024/03/24 11:56:20;;;;;;;6.05;5.45;;;6.10;1.00;;;;;;5103281;27;20312;-72
2024/03/24 11:58:49;;;;;;;5.18;4.65;;;6.10;1.00;;;;;;5111363;27;20240;-73
2024/03/24 12:01:18;;;;;;;6.35;5.32;;;6.10;1.00;;;;;;5096738;27;20240;-76
2024/03/24 12:03:45;;;;;;;7.22;5.00;;;6.20;1.00;;;;;;5082233;28;20224;-74
2024/03/24 12:06:14;;;;;;;5.40;4.70;;;6.20;1.00;;;;;;5083595;28;20243;-74
2024/03/24 12:08:40;;;;;;;4.47;4.05;;;6.10;1.00;;;;;;5085124;27;20246;-76
2024/03/24 12:11:07;;;;;;;4.60;4.15;;;6.10;1.00;;;;;;5093819;27;20314;-72
2024/03/24 12:13:34;;;;;;;4.88;4.07;;;5.90;1.00;;;;;;5109951;27;20643;-73
2024/03/24 12:16:01;;;;;;;4.32;3.92;;;5.90;1.00;;;;;;5111231;27;20986;-77
2024/03/24 12:18:27;;;;;;;8.43;4.85;;;6.00;1.00;;;;;;5106896;27;20318;-74
2024/03/24 12:20:56;;;;;;;4.50;4.00;;;6.00;1.00;;;;;;5114890;27;20240;-73
2024/03/24 12:23:25;;;;;;;4.68;4.28;;;6.00;1.00;;;;;;5111370;27;20540;-75
2024/03/24 12:25:54;;;;;;;4.50;4.10;;;6.10;1.00;;;;;;5108052;27;20723;-73
2024/03/24 12:28:20;;;;;;;5.75;4.60;;;6.30;1.00;;;;;;5107687;27;20237;-73
2024/03/24 12:30:52;;;;;;;4.65;4.25;;;6.40;1.00;;;;;;5109631;27;20237;-74
2024/03/24 12:33:19;;;;;;;4.65;4.25;;;6.50;1.00;;;;;;5091122;27;20308;-74
2024/03/24 12:35:47;;;;;;;5.15;4.10;;;6.50;1.00;;;;;;5095744;27;20915;-72
2024/03/24 12:38:14;;;;;;;5.65;5.05;;;6.60;1.00;;;;;;5106488;27;20734;-73
2024/03/24 12:40:50;;;;;;;6.28;4.72;;;6.70;1.00;;;;;;5106686;27;20420;-72
2024/03/24 12:43:16;;;;;;;5.50;4.90;;;6.80;1.00;;;;;;5107892;27;20244;-73
2024/03/24 12:45:53;;;;;;;5.78;5.10;;;6.80;1.00;;;;;;5104837;27;20242;-73
2024/03/24 12:48:20;;;;;;;6.53;5.07;;;6.90;1.00;;;;;;5104569;27;21075;-74
2024/03/24 12:50:47;;;;;;;5.40;4.10;;;7.00;1.00;;;;;;5103896;27;20307;-73
2024/03/24 12:53:30;;;;;;;5.57;4.82;;;7.20;1.00;;;;;;5104332;27;20435;-74
2024/03/24 12:56:00;;;;;;;8.43;6.10;;;7.20;1.00;;;;;;5108996;27;20611;-72
2024/03/24 12:58:33;;;;;;;4.95;4.55;;;7.10;1.00;;;;;;5105216;27;20239;-73
2024/03/24 13:01:02;;;;;;;5.72;5.22;;;7.00;1.00;;;;;;5107823;27;20234;-72
2024/03/24 13:03:28;;;;;;;4.25;3.85;;;7.00;1.00;;;;;;5091567;28;20821;-72
2024/03/24 13:05:59;;;;;;;5.05;4.55;;;7.00;1.00;;;;;;5086851;27;20237;-74
2024/03/24 13:08:31;;;;;;;5.93;5.35;;;7.00;1.00;;;;;;5095859;27;20380;-74